sensor_id;sensor_type;location;lat;lon;timestamp;pressure;altitude;pressure_sealevel;temperature;humidity
70304;BME280;57712;48.752;11.348;2023-06-14T00:00:02;97061.72;;;13.11;100.00
70304;BME280;57712;48.752;11.348;2023-06-14T00:02:30;97064.59;;;13.20;100.00
70304;BME280;57712;48.752;11.348;2023-06-14T00:04:57;97052.94;;;13.16;100.00
70304;BME280;57712;48.752;11.348;2023-06-14T00:07:36;97058.66;;;13.09;100.00
70304;BME280;57712;48.752;11.348;2023-06-14T00:10:05;97066.28;;;13.05;100.00
70304;BME280;57712;48.752;11.348;2023-06-14T00:12:32;97063.13;;;12.94;100.00
70304;BME280;57712;48.752;11.348;2023-06-14T00:14:59;97067.09;;;12.93;100.00
70304;BME280;57712;48.752;11.348;2023-06-14T00:17:28;97068.22;;;12.83;100.00
70304;BME280;57712;48.752;11.348;2023-06-14T00:19:59;97066.03;;;12.78;100.00
70304;BME280;57712;48.752;11.348;2023-06-14T00:22:25;97054.53;;;12.92;100.00
70304;BME280;57712;48.752;11.348;2023-06-14T00:24:55;97064.63;;;12.73;100.00
70304;BME280;57712;48.752;11.348;2023-06-14T00:27:22;97058.38;;;12.73;100.00
70304;BME280;57712;48.752;11.348;2023-06-14T00:29:48;97052.59;;;12.80;100.00
70304;BME280;57712;48.752;11.348;2023-06-14T00:32:15;97050.22;;;12.69;100.00
70304;BME280;57712;48.752;11.348;2023-06-14T00:34:42;97055.97;;;12.62;100.00
70304;BME280;57712;48.752;11.348;2023-06-14T00:37:09;97061.78;;;12.64;100.00
70304;BME280;57712;48.752;11.348;2023-06-14T00:39:36;97065.94;;;12.68;100.00
70304;BME280;57712;48.752;11.348;2023-06-14T00:42:02;97063.09;;;12.59;100.00
70304;BME280;57712;48.752;11.348;2023-06-14T00:44:29;97058.63;;;12.40;100.00
70304;BME280;57712;48.752;11.348;2023-06-14T00:46:56;97051.03;;;12.57;100.00
70304;BME280;57712;48.752;11.348;2023-06-14T00:49:23;97057.50;;;12.50;100.00
70304;BME280;57712;48.752;11.348;2023-06-14T00:51:51;97052.91;;;12.47;100.00
70304;BME280;57712;48.752;11.348;2023-06-14T00:54:17;97048.31;;;12.44;100.00
70304;BME280;57712;48.752;11.348;2023-06-14T00:56:44;97054.34;;;12.52;100.00
70304;BME280;57712;48.752;11.348;2023-06-14T00:59:12;97048.78;;;12.30;100.00
70304;BME280;57712;48.752;11.348;2023-06-14T01:01:39;97058.63;;;12.40;100.00
70304;BME280;57712;48.752;11.348;2023-06-14T01:04:06;97064.56;;;12.26;100.00
70304;BME280;57712;48.752;11.348;2023-06-14T01:12:42;97067.44;;;12.09;100.00
70304;BME280;57712;48.752;11.348;2023-06-14T01:15:13;97068.44;;;12.03;100.00
70304;BME280;57712;48.752;11.348;2023-06-14T01:17:41;97063.03;;;12.25;100.00
70304;BME280;57712;48.752;11.348;2023-06-14T01:20:12;97055.78;;;12.05;100.00
70304;BME280;57712;48.752;11.348;2023-06-14T01:22:51;97059.88;;;12.13;100.00
70304;BME280;57712;48.752;11.348;2023-06-14T01:25:22;97061.72;;;12.04;100.00
70304;BME280;57712;48.752;11.348;2023-06-14T01:27:51;97055.69;;;12.09;100.00
70304;BME280;57712;48.752;11.348;2023-06-14T01:30:20;97059.88;;;12.01;100.00
70304;BME280;57712;48.752;11.348;2023-06-14T01:32:48;97059.97;;;11.97;100.00
70304;BME280;57712;48.752;11.348;2023-06-14T01:35:17;97056.25;;;11.91;100.00
70304;BME280;57712;48.752;11.348;2023-06-14T01:37:46;97061.28;;;11.93;100.00
70304;BME280;57712;48.752;11.348;2023-06-14T01:40:15;97055.91;;;11.89;100.00
70304;BME280;57712;48.752;11.348;2023-06-14T01:42:43;97063.16;;;11.96;100.00
70304;BME280;57712;48.752;11.348;2023-06-14T01:45:11;97052.94;;;11.96;100.00
70304;BME280;57712;48.752;11.348;2023-06-14T01:47:38;97052.78;;;11.74;100.00
70304;BME280;57712;48.752;11.348;2023-06-14T01:50:09;97059.34;;;11.77;100.00
70304;BME280;57712;48.752;11.348;2023-06-14T01:52:39;97054.59;;;11.81;100.00
70304;BME280;57712;48.752;11.348;2023-06-14T01:55:06;97054.03;;;11.86;100.00
70304;BME280;57712;48.752;11.348;2023-06-14T01:57:34;97055.22;;;11.85;100.00
70304;BME280;57712;48.752;11.348;2023-06-14T02:00:01;97054.44;;;11.72;100.00
70304;BME280;57712;48.752;11.348;2023-06-14T02:02:27;97058.38;;;11.71;100.00
70304;BME280;57712;48.752;11.348;2023-06-14T02:04:54;97054.75;;;11.74;100.00
70304;BME280;57712;48.752;11.348;2023-06-14T02:07:24;97062.34;;;11.70;100.00
70304;BME280;57712;48.752;11.348;2023-06-14T02:09:51;97066.25;;;11.56;100.00
70304;BME280;57712;48.752;11.348;2023-06-14T02:12:17;97060.44;;;11.67;100.00
70304;BME280;57712;48.752;11.348;2023-06-14T02:14:44;97058.59;;;11.64;100.00
70304;BME280;57712;48.752;11.348;2023-06-14T02:17:11;97061.88;;;11.59;100.00
70304;BME280;57712;48.752;11.348;2023-06-14T02:19:38;97053.50;;;11.49;100.00
70304;BME280;57712;48.752;11.348;2023-06-14T02:22:05;97064.69;;;11.42;100.00
70304;BME280;57712;48.752;11.348;2023-06-14T02:24:31;97060.16;;;11.36;100.00
70304;BME280;57712;48.752;11.348;2023-06-14T02:26:58;97063.34;;;11.34;100.00
70304;BME280;57712;48.752;11.348;2023-06-14T02:29:25;97061.03;;;11.33;100.00
70304;BME280;57712;48.752;11.348;2023-06-14T02:31:52;97056.13;;;11.11;100.00
70304;BME280;57712;48.752;11.348;2023-06-14T02:34:18;97059.31;;;11.10;100.00
70304;BME280;57712;48.752;11.348;2023-06-14T02:36:47;97064.97;;;11.03;100.00
70304;BME280;57712;48.752;11.348;2023-06-14T02:39:14;97061.88;;;11.17;100.00
70304;BME280;57712;48.752;11.348;2023-06-14T02:41:41;97068.06;;;11.05;100.00
70304;BME280;57712;48.752;11.348;2023-06-14T02:44:07;97065.84;;;10.99;100.00
70304;BME280;57712;48.752;11.348;2023-06-14T02:46:34;97059.69;;;10.95;100.00
70304;BME280;57712;48.752;11.348;2023-06-14T02:49:01;97073.25;;;10.86;100.00
70304;BME280;57712;48.752;11.348;2023-06-14T02:51:27;97066.03;;;10.92;100.00
70304;BME280;57712;48.752;11.348;2023-06-14T02:53:54;97064.81;;;10.93;100.00
70304;BME280;57712;48.752;11.348;2023-06-14T02:56:21;97068.69;;;10.96;100.00
70304;BME280;57712;48.752;11.348;2023-06-14T02:58:49;97074.25;;;10.92;100.00
70304;BME280;57712;48.752;11.348;2023-06-14T03:01:17;97075.78;;;10.93;100.00
70304;BME280;57712;48.752;11.348;2023-06-14T03:03:44;97078.53;;;10.93;100.00
70304;BME280;57712;48.752;11.348;2023-06-14T03:06:11;97071.00;;;10.97;100.00
70304;BME280;57712;48.752;11.348;2023-06-14T03:08:40;97069.25;;;11.04;100.00
70304;BME280;57712;48.752;11.348;2023-06-14T03:11:08;97069.63;;;11.06;100.00
70304;BME280;57712;48.752;11.348;2023-06-14T03:13:35;97071.16;;;11.07;100.00
70304;BME280;57712;48.752;11.348;2023-06-14T03:16:02;97069.31;;;10.87;100.00
70304;BME280;57712;48.752;11.348;2023-06-14T03:18:30;97070.31;;;10.93;100.00
70304;BME280;57712;48.752;11.348;2023-06-14T03:21:02;97069.03;;;10.98;100.00
70304;BME280;57712;48.752;11.348;2023-06-14T03:23:29;97073.25;;;10.86;100.00
70304;BME280;57712;48.752;11.348;2023-06-14T03:25:56;97077.25;;;10.82;100.00
70304;BME280;57712;48.752;11.348;2023-06-14T03:28:23;97075.66;;;10.84;100.00
70304;BME280;57712;48.752;11.348;2023-06-14T03:30:50;97082.16;;;10.74;100.00
70304;BME280;57712;48.752;11.348;2023-06-14T03:33:17;97079.94;;;10.69;100.00
70304;BME280;57712;48.752;11.348;2023-06-14T03:35:43;97080.53;;;10.77;100.00
70304;BME280;57712;48.752;11.348;2023-06-14T03:38:10;97087.78;;;10.83;100.00
70304;BME280;57712;48.752;11.348;2023-06-14T03:40:37;97080.38;;;10.84;100.00
70304;BME280;57712;48.752;11.348;2023-06-14T03:43:03;97083.63;;;10.79;100.00
70304;BME280;57712;48.752;11.348;2023-06-14T03:45:30;97088.00;;;10.76;100.00
70304;BME280;57712;48.752;11.348;2023-06-14T03:47:57;97097.41;;;10.75;100.00
70304;BME280;57712;48.752;11.348;2023-06-14T03:50:24;97093.53;;;10.73;100.00
70304;BME280;57712;48.752;11.348;2023-06-14T03:52:51;97098.06;;;10.79;100.00
70304;BME280;57712;48.752;11.348;2023-06-14T03:55:18;97096.88;;;10.80;100.00
70304;BME280;57712;48.752;11.348;2023-06-14T03:57:48;97104.38;;;10.92;100.00
70304;BME280;57712;48.752;11.348;2023-06-14T04:00:15;97114.31;;;11.03;100.00
70304;BME280;57712;48.752;11.348;2023-06-14T04:02:42;97123.31;;;11.03;100.00
70304;BME280;57712;48.752;11.348;2023-06-14T04:05:10;97118.47;;;11.23;100.00
70304;BME280;57712;48.752;11.348;2023-06-14T04:07:37;97119.53;;;11.42;100.00
70304;BME280;57712;48.752;11.348;2023-06-14T04:10:07;97116.63;;;11.91;100.00
70304;BME280;57712;48.752;11.348;2023-06-14T04:12:37;97122.69;;;12.50;100.00
70304;BME280;57712;48.752;11.348;2023-06-14T04:15:04;97123.06;;;12.86;100.00
70304;BME280;57712;48.752;11.348;2023-06-14T04:17:44;97130.13;;;13.35;100.00
70304;BME280;57712;48.752;11.348;2023-06-14T04:20:14;97132.75;;;13.82;100.00
70304;BME280;57712;48.752;11.348;2023-06-14T04:22:41;97131.75;;;14.20;100.00
70304;BME280;57712;48.752;11.348;2023-06-14T04:25:10;97126.00;;;14.36;100.00
70304;BME280;57712;48.752;11.348;2023-06-14T04:27:37;97128.81;;;14.94;100.00
70304;BME280;57712;48.752;11.348;2023-06-14T04:30:05;97131.91;;;15.15;100.00
70304;BME280;57712;48.752;11.348;2023-06-14T04:32:32;97130.53;;;15.83;100.00
70304;BME280;57712;48.752;11.348;2023-06-14T04:35:00;97141.84;;;16.04;100.00
70304;BME280;57712;48.752;11.348;2023-06-14T04:37:30;97140.78;;;16.53;100.00
70304;BME280;57712;48.752;11.348;2023-06-14T04:39:57;97144.28;;;16.62;100.00
70304;BME280;57712;48.752;11.348;2023-06-14T04:42:24;97137.53;;;17.20;100.00
70304;BME280;57712;48.752;11.348;2023-06-14T04:44:56;97139.78;;;17.46;100.00
70304;BME280;57712;48.752;11.348;2023-06-14T04:47:23;97134.94;;;17.55;100.00
70304;BME280;57712;48.752;11.348;2023-06-14T04:49:59;97141.25;;;17.56;100.00
70304;BME280;57712;48.752;11.348;2023-06-14T04:52:27;97142.78;;;18.10;97.77
70304;BME280;57712;48.752;11.348;2023-06-14T04:54:56;97140.75;;;17.81;96.08
70304;BME280;57712;48.752;11.348;2023-06-14T04:57:23;97144.41;;;18.17;90.72
70304;BME280;57712;48.752;11.348;2023-06-14T04:59:52;97158.94;;;18.12;98.26
70304;BME280;57712;48.752;11.348;2023-06-14T05:02:22;97149.47;;;18.04;92.94
70304;BME280;57712;48.752;11.348;2023-06-14T05:04:50;97144.72;;;17.66;98.37
70304;BME280;57712;48.752;11.348;2023-06-14T05:07:17;97146.13;;;18.00;95.12
70304;BME280;57712;48.752;11.348;2023-06-14T05:09:44;97149.72;;;18.50;91.35
70304;BME280;57712;48.752;11.348;2023-06-14T05:12:11;97150.88;;;18.58;91.02
70304;BME280;57712;48.752;11.348;2023-06-14T05:14:38;97158.75;;;18.30;91.44
70304;BME280;57712;48.752;11.348;2023-06-14T05:17:06;97154.31;;;18.53;92.62
70304;BME280;57712;48.752;11.348;2023-06-14T05:19:32;97154.69;;;18.61;90.38
70304;BME280;57712;48.752;11.348;2023-06-14T05:21:59;97150.91;;;18.93;84.69
70304;BME280;57712;48.752;11.348;2023-06-14T05:24:26;97151.66;;;19.29;87.96
70304;BME280;57712;48.752;11.348;2023-06-14T05:26:53;97151.69;;;19.14;82.64
70304;BME280;57712;48.752;11.348;2023-06-14T05:29:19;97157.47;;;19.51;86.47
70304;BME280;57712;48.752;11.348;2023-06-14T05:31:46;97159.06;;;19.38;100.00
70304;BME280;57712;48.752;11.348;2023-06-14T05:34:13;97166.66;;;19.57;91.92
70304;BME280;57712;48.752;11.348;2023-06-14T05:36:39;97172.88;;;19.12;88.12
70304;BME280;57712;48.752;11.348;2023-06-14T05:39:06;97170.03;;;19.26;92.29
70304;BME280;57712;48.752;11.348;2023-06-14T05:41:33;97180.34;;;20.07;80.65
70304;BME280;57712;48.752;11.348;2023-06-14T05:44:00;97174.94;;;19.98;71.78
70304;BME280;57712;48.752;11.348;2023-06-14T05:46:27;97182.63;;;19.83;76.97
70304;BME280;57712;48.752;11.348;2023-06-14T05:48:55;97182.50;;;19.72;80.74
70304;BME280;57712;48.752;11.348;2023-06-14T05:51:23;97180.69;;;19.69;73.17
70304;BME280;57712;48.752;11.348;2023-06-14T05:53:52;97184.28;;;19.95;80.79
70304;BME280;57712;48.752;11.348;2023-06-14T05:56:19;97191.47;;;20.07;70.98
70304;BME280;57712;48.752;11.348;2023-06-14T05:58:46;97183.81;;;19.76;70.45
70304;BME280;57712;48.752;11.348;2023-06-14T06:01:13;97179.06;;;19.42;67.95
70304;BME280;57712;48.752;11.348;2023-06-14T06:03:40;97176.22;;;20.23;77.07
70304;BME280;57712;48.752;11.348;2023-06-14T06:06:08;97183.03;;;20.48;70.64
70304;BME280;57712;48.752;11.348;2023-06-14T06:08:34;97183.94;;;20.39;66.75
70304;BME280;57712;48.752;11.348;2023-06-14T06:11:01;97188.50;;;20.68;64.53
70304;BME280;57712;48.752;11.348;2023-06-14T06:13:28;97182.38;;;20.96;68.57
70304;BME280;57712;48.752;11.348;2023-06-14T06:15:55;97184.69;;;21.03;60.88
70304;BME280;57712;48.752;11.348;2023-06-14T06:18:22;97180.66;;;20.41;62.05
70304;BME280;57712;48.752;11.348;2023-06-14T06:20:49;97182.63;;;20.35;63.09
70304;BME280;57712;48.752;11.348;2023-06-14T06:23:16;97183.50;;;20.21;64.20
70304;BME280;57712;48.752;11.348;2023-06-14T06:25:43;97191.03;;;20.66;64.92
70304;BME280;57712;48.752;11.348;2023-06-14T06:28:10;97197.34;;;20.41;63.92
70304;BME280;57712;48.752;11.348;2023-06-14T06:30:38;97196.78;;;20.57;63.02
70304;BME280;57712;48.752;11.348;2023-06-14T06:33:05;97199.72;;;19.76;63.73
70304;BME280;57712;48.752;11.348;2023-06-14T06:35:32;97205.94;;;20.11;73.17
70304;BME280;57712;48.752;11.348;2023-06-14T06:37:59;97202.06;;;20.03;61.21
70304;BME280;57712;48.752;11.348;2023-06-14T06:40:27;97208.84;;;20.23;63.38
70304;BME280;57712;48.752;11.348;2023-06-14T06:42:54;97203.81;;;20.27;58.62
70304;BME280;57712;48.752;11.348;2023-06-14T06:45:21;97204.06;;;20.29;64.74
70304;BME280;57712;48.752;11.348;2023-06-14T06:47:51;97202.22;;;19.94;62.16
70304;BME280;57712;48.752;11.348;2023-06-14T06:50:19;97204.38;;;20.10;62.79
70304;BME280;57712;48.752;11.348;2023-06-14T06:52:46;97211.53;;;19.91;61.13
70304;BME280;57712;48.752;11.348;2023-06-14T06:55:13;97215.41;;;19.79;62.49
70304;BME280;57712;48.752;11.348;2023-06-14T06:57:40;97214.09;;;20.21;76.98
70304;BME280;57712;48.752;11.348;2023-06-14T07:00:08;97217.09;;;20.17;69.55
70304;BME280;57712;48.752;11.348;2023-06-14T07:02:39;97220.38;;;20.15;63.32
70304;BME280;57712;48.752;11.348;2023-06-14T07:05:07;97215.16;;;20.49;69.81
70304;BME280;57712;48.752;11.348;2023-06-14T07:07:34;97218.97;;;20.26;63.77
70304;BME280;57712;48.752;11.348;2023-06-14T07:10:01;97226.69;;;20.42;66.93
70304;BME280;57712;48.752;11.348;2023-06-14T07:12:28;97221.28;;;20.53;65.81
70304;BME280;57712;48.752;11.348;2023-06-14T07:14:57;97224.88;;;20.59;69.23
70304;BME280;57712;48.752;11.348;2023-06-14T07:17:23;97225.59;;;20.54;69.82
70304;BME280;57712;48.752;11.348;2023-06-14T07:19:50;97220.91;;;20.19;65.67
70304;BME280;57712;48.752;11.348;2023-06-14T07:22:17;97223.78;;;20.51;68.86
70304;BME280;57712;48.752;11.348;2023-06-14T07:24:44;97229.09;;;20.81;69.78
70304;BME280;57712;48.752;11.348;2023-06-14T07:27:11;97227.22;;;20.66;68.25
70304;BME280;57712;48.752;11.348;2023-06-14T07:29:41;97234.34;;;20.73;66.61
70304;BME280;57712;48.752;11.348;2023-06-14T07:32:07;97236.44;;;21.15;72.39
70304;BME280;57712;48.752;11.348;2023-06-14T07:34:34;97235.50;;;20.92;65.06
70304;BME280;57712;48.752;11.348;2023-06-14T07:37:01;97242.41;;;20.97;59.29
70304;BME280;57712;48.752;11.348;2023-06-14T07:39:27;97239.69;;;20.77;65.67
70304;BME280;57712;48.752;11.348;2023-06-14T07:41:54;97247.97;;;21.28;63.19
70304;BME280;57712;48.752;11.348;2023-06-14T07:44:21;97248.22;;;20.67;61.92
70304;BME280;57712;48.752;11.348;2023-06-14T07:46:47;97249.38;;;21.18;61.37
70304;BME280;57712;48.752;11.348;2023-06-14T07:49:15;97258.09;;;21.31;63.97
70304;BME280;57712;48.752;11.348;2023-06-14T07:51:43;97249.75;;;21.31;63.37
70304;BME280;57712;48.752;11.348;2023-06-14T07:54:10;97262.31;;;21.21;64.73
70304;BME280;57712;48.752;11.348;2023-06-14T07:56:37;97255.13;;;21.46;60.84
70304;BME280;57712;48.752;11.348;2023-06-14T07:59:04;97261.91;;;21.02;59.90
70304;BME280;57712;48.752;11.348;2023-06-14T08:01:32;97253.94;;;21.21;56.32
70304;BME280;57712;48.752;11.348;2023-06-14T08:03:59;97256.81;;;21.27;58.33
70304;BME280;57712;48.752;11.348;2023-06-14T08:06:26;97255.22;;;21.20;57.37
70304;BME280;57712;48.752;11.348;2023-06-14T08:08:53;97254.28;;;21.77;56.80
70304;BME280;57712;48.752;11.348;2023-06-14T08:11:20;97262.22;;;21.96;60.53
70304;BME280;57712;48.752;11.348;2023-06-14T08:13:47;97250.47;;;22.45;61.18
70304;BME280;57712;48.752;11.348;2023-06-14T08:16:14;97265.94;;;21.76;58.42
70304;BME280;57712;48.752;11.348;2023-06-14T08:18:41;97260.16;;;21.85;56.06
70304;BME280;57712;48.752;11.348;2023-06-14T08:21:07;97264.50;;;21.97;61.15
70304;BME280;57712;48.752;11.348;2023-06-14T08:23:34;97265.78;;;21.90;63.43
70304;BME280;57712;48.752;11.348;2023-06-14T08:26:02;97266.56;;;22.02;56.09
70304;BME280;57712;48.752;11.348;2023-06-14T08:28:30;97270.75;;;21.75;58.27
70304;BME280;57712;48.752;11.348;2023-06-14T08:30:57;97269.81;;;21.89;55.66
70304;BME280;57712;48.752;11.348;2023-06-14T08:33:23;97269.44;;;22.19;61.14
70304;BME280;57712;48.752;11.348;2023-06-14T08:35:50;97269.53;;;22.53;53.99
70304;BME280;57712;48.752;11.348;2023-06-14T08:38:17;97270.06;;;22.79;65.16
70304;BME280;57712;48.752;11.348;2023-06-14T08:40:47;97267.03;;;22.88;56.56
70304;BME280;57712;48.752;11.348;2023-06-14T08:43:14;97278.34;;;22.29;53.06
70304;BME280;57712;48.752;11.348;2023-06-14T08:45:41;97270.00;;;22.45;54.82
70304;BME280;57712;48.752;11.348;2023-06-14T08:48:08;97281.94;;;21.81;56.34
70304;BME280;57712;48.752;11.348;2023-06-14T08:50:36;97283.63;;;21.67;56.27
70304;BME280;57712;48.752;11.348;2023-06-14T08:53:07;97286.25;;;22.41;56.01
70304;BME280;57712;48.752;11.348;2023-06-14T08:55:37;97280.94;;;22.49;54.05
70304;BME280;57712;48.752;11.348;2023-06-14T08:58:09;97288.75;;;22.23;55.19
70304;BME280;57712;48.752;11.348;2023-06-14T09:00:36;97284.69;;;22.29;57.81
70304;BME280;57712;48.752;11.348;2023-06-14T09:03:05;97285.66;;;22.15;53.46
70304;BME280;57712;48.752;11.348;2023-06-14T09:05:40;97283.41;;;22.25;62.46
70304;BME280;57712;48.752;11.348;2023-06-14T09:08:07;97278.13;;;22.43;58.35
70304;BME280;57712;48.752;11.348;2023-06-14T09:10:34;97280.00;;;22.04;55.84
70304;BME280;57712;48.752;11.348;2023-06-14T09:13:05;97277.44;;;21.95;55.84
70304;BME280;57712;48.752;11.348;2023-06-14T09:15:32;97276.59;;;21.77;55.84
70304;BME280;57712;48.752;11.348;2023-06-14T09:18:01;97274.41;;;21.98;55.21
70304;BME280;57712;48.752;11.348;2023-06-14T09:20:30;97281.84;;;22.18;57.11
70304;BME280;57712;48.752;11.348;2023-06-14T09:22:57;97281.13;;;22.23;52.24
70304;BME280;57712;48.752;11.348;2023-06-14T09:25:24;97270.28;;;22.70;51.21
70304;BME280;57712;48.752;11.348;2023-06-14T09:28:06;97269.78;;;22.71;55.23
70304;BME280;57712;48.752;11.348;2023-06-14T09:30:33;97273.13;;;23.26;63.34
70304;BME280;57712;48.752;11.348;2023-06-14T09:33:03;97278.19;;;22.77;51.97
70304;BME280;57712;48.752;11.348;2023-06-14T09:35:33;97276.44;;;23.02;54.73
70304;BME280;57712;48.752;11.348;2023-06-14T09:38:00;97274.84;;;23.51;54.93
70304;BME280;57712;48.752;11.348;2023-06-14T09:40:27;97276.66;;;23.43;54.93
70304;BME280;57712;48.752;11.348;2023-06-14T09:42:54;97274.84;;;23.63;53.78
70304;BME280;57712;48.752;11.348;2023-06-14T09:45:22;97273.50;;;23.97;50.98
70304;BME280;57712;48.752;11.348;2023-06-14T09:47:49;97279.56;;;24.01;48.70
70304;BME280;57712;48.752;11.348;2023-06-14T09:50:32;97285.53;;;24.39;47.20
70304;BME280;57712;48.752;11.348;2023-06-14T09:53:03;97276.56;;;24.46;40.67
70304;BME280;57712;48.752;11.348;2023-06-14T09:55:34;97287.63;;;24.22;44.51
70304;BME280;57712;48.752;11.348;2023-06-14T09:58:04;97277.84;;;24.45;43.14
70304;BME280;57712;48.752;11.348;2023-06-14T10:00:34;97282.94;;;24.46;40.19
70304;BME280;57712;48.752;11.348;2023-06-14T10:03:21;97277.66;;;25.39;44.46
70304;BME280;57712;48.752;11.348;2023-06-14T10:05:50;97281.75;;;26.11;45.44
70304;BME280;57712;48.752;11.348;2023-06-14T10:08:19;97279.47;;;25.06;39.55
70304;BME280;57712;48.752;11.348;2023-06-14T10:10:50;97283.97;;;26.18;35.88
70304;BME280;57712;48.752;11.348;2023-06-14T10:13:17;97279.47;;;26.28;36.15
70304;BME280;57712;48.752;11.348;2023-06-14T10:16:07;97279.28;;;26.45;34.72
70304;BME280;57712;48.752;11.348;2023-06-14T10:19:40;97277.50;;;26.80;36.11
70304;BME280;57712;48.752;11.348;2023-06-14T10:21:55;97276.97;;;26.06;35.63
70304;BME280;57712;48.752;11.348;2023-06-14T10:24:30;97267.41;;;27.61;32.71
70304;BME280;57712;48.752;11.348;2023-06-14T10:26:59;97277.09;;;26.13;33.19
70304;BME280;57712;48.752;11.348;2023-06-14T10:29:29;97276.22;;;25.81;35.19
70304;BME280;57712;48.752;11.348;2023-06-14T10:32:00;97277.13;;;26.70;35.05
70304;BME280;57712;48.752;11.348;2023-06-14T10:34:28;97276.72;;;26.47;36.63
70304;BME280;57712;48.752;11.348;2023-06-14T10:37:05;97275.25;;;25.78;35.04
70304;BME280;57712;48.752;11.348;2023-06-14T10:39:39;97277.00;;;26.43;36.14
70304;BME280;57712;48.752;11.348;2023-06-14T10:42:11;97273.88;;;26.66;35.90
70304;BME280;57712;48.752;11.348;2023-06-14T10:47:23;97264.19;;;26.05;33.47
70304;BME280;57712;48.752;11.348;2023-06-14T10:50:13;97261.16;;;26.78;33.33
70304;BME280;57712;48.752;11.348;2023-06-14T10:52:42;97260.94;;;26.76;38.08
70304;BME280;57712;48.752;11.348;2023-06-14T10:55:14;97256.91;;;26.15;33.00
70304;BME280;57712;48.752;11.348;2023-06-14T10:57:46;97266.59;;;26.38;36.25
70304;BME280;57712;48.752;11.348;2023-06-14T11:00:20;97252.03;;;27.23;36.61
70304;BME280;57712;48.752;11.348;2023-06-14T11:05:49;97256.16;;;27.35;35.23
70304;BME280;57712;48.752;11.348;2023-06-14T11:10:59;97245.94;;;28.72;31.91
70304;BME280;57712;48.752;11.348;2023-06-14T11:13:26;97250.97;;;28.18;32.01
70304;BME280;57712;48.752;11.348;2023-06-14T11:15:57;97259.91;;;27.83;33.60
70304;BME280;57712;48.752;11.348;2023-06-14T11:18:25;97264.66;;;26.84;33.43
70304;BME280;57712;48.752;11.348;2023-06-14T11:20:54;97254.56;;;27.08;35.14
70304;BME280;57712;48.752;11.348;2023-06-14T11:23:21;97250.88;;;26.99;34.06
70304;BME280;57712;48.752;11.348;2023-06-14T11:25:52;97250.56;;;27.88;31.79
70304;BME280;57712;48.752;11.348;2023-06-14T11:28:19;97251.38;;;28.36;31.56
70304;BME280;57712;48.752;11.348;2023-06-14T11:31:01;97253.56;;;28.30;33.36
70304;BME280;57712;48.752;11.348;2023-06-14T11:33:28;97252.50;;;28.06;30.75
70304;BME280;57712;48.752;11.348;2023-06-14T11:35:54;97245.84;;;28.64;32.80
70304;BME280;57712;48.752;11.348;2023-06-14T11:38:21;97249.97;;;26.40;32.81
70304;BME280;57712;48.752;11.348;2023-06-14T11:40:48;97247.22;;;27.04;32.55
70304;BME280;57712;48.752;11.348;2023-06-14T11:43:15;97250.53;;;26.14;32.43
70304;BME280;57712;48.752;11.348;2023-06-14T11:45:41;97239.91;;;25.40;36.46
70304;BME280;57712;48.752;11.348;2023-06-14T11:48:14;97246.31;;;25.10;34.95
70304;BME280;57712;48.752;11.348;2023-06-14T11:50:41;97252.50;;;25.03;35.28
70304;BME280;57712;48.752;11.348;2023-06-14T11:53:08;97241.88;;;24.60;36.24
70304;BME280;57712;48.752;11.348;2023-06-14T11:55:39;97236.19;;;24.25;39.61
70304;BME280;57712;48.752;11.348;2023-06-14T11:58:07;97235.38;;;25.37;37.87
70304;BME280;57712;48.752;11.348;2023-06-14T12:00:35;97230.66;;;25.94;35.17
70304;BME280;57712;48.752;11.348;2023-06-14T12:03:03;97229.19;;;27.13;37.23
70304;BME280;57712;48.752;11.348;2023-06-14T12:05:30;97226.72;;;27.49;33.38
70304;BME280;57712;48.752;11.348;2023-06-14T12:08:02;97229.38;;;27.02;33.71
70304;BME280;57712;48.752;11.348;2023-06-14T12:10:29;97232.56;;;26.23;33.46
70304;BME280;57712;48.752;11.348;2023-06-14T12:12:59;97239.91;;;25.88;37.38
70304;BME280;57712;48.752;11.348;2023-06-14T12:15:31;97228.34;;;25.73;35.73
70304;BME280;57712;48.752;11.348;2023-06-14T12:17:58;97229.09;;;24.95;35.60
70304;BME280;57712;48.752;11.348;2023-06-14T12:20:29;97224.66;;;24.81;35.41
70304;BME280;57712;48.752;11.348;2023-06-14T12:22:58;97232.13;;;24.97;37.30
70304;BME280;57712;48.752;11.348;2023-06-14T12:25:32;97225.84;;;24.55;37.37
70304;BME280;57712;48.752;11.348;2023-06-14T12:28:05;97228.31;;;24.17;37.91
70304;BME280;57712;48.752;11.348;2023-06-14T12:30:33;97228.66;;;24.08;37.06
70304;BME280;57712;48.752;11.348;2023-06-14T12:33:01;97232.59;;;24.30;37.39
70304;BME280;57712;48.752;11.348;2023-06-14T12:35:28;97232.75;;;24.07;38.69
70304;BME280;57712;48.752;11.348;2023-06-14T12:37:55;97236.28;;;24.08;38.04
70304;BME280;57712;48.752;11.348;2023-06-14T12:40:23;97233.44;;;24.13;39.44
70304;BME280;57712;48.752;11.348;2023-06-14T12:42:49;97236.31;;;24.02;37.09
70304;BME280;57712;48.752;11.348;2023-06-14T12:45:16;97241.63;;;24.11;40.10
70304;BME280;57712;48.752;11.348;2023-06-14T12:47:43;97235.41;;;24.30;39.23
70304;BME280;57712;48.752;11.348;2023-06-14T12:50:10;97236.94;;;24.25;37.33
70304;BME280;57712;48.752;11.348;2023-06-14T12:52:37;97237.19;;;24.33;38.34
70304;BME280;57712;48.752;11.348;2023-06-14T12:55:04;97231.91;;;24.18;37.92
70304;BME280;57712;48.752;11.348;2023-06-14T12:57:31;97231.63;;;24.22;38.96
70304;BME280;57712;48.752;11.348;2023-06-14T13:00:00;97237.84;;;24.03;38.86
70304;BME280;57712;48.752;11.348;2023-06-14T13:02:29;97245.84;;;24.35;41.29
70304;BME280;57712;48.752;11.348;2023-06-14T13:04:56;97245.84;;;24.35;40.31